createdAt,value
2022-12-22T00:01:21.968Z,93.53
2022-12-22T00:04:29.433Z,93.78
2022-12-22T00:07:33.469Z,93.72
2022-12-22T00:10:38.519Z,93.67
2022-12-22T00:13:42.431Z,93.93
2022-12-22T00:16:53.239Z,93.97
2022-12-22T00:19:57.535Z,93.63
2022-12-22T00:23:01.721Z,93.68
2022-12-22T00:26:06.526Z,93.59
2022-12-22T00:29:10.253Z,93.79
2022-12-22T00:32:14.782Z,93.55
2022-12-22T00:35:22.664Z,93.23
2022-12-22T00:38:40.425Z,93.42
2022-12-22T00:41:44.902Z,93.56
2022-12-22T00:44:49.230Z,93.57
2022-12-22T00:47:53.650Z,93.63
2022-12-22T00:50:58.436Z,93.76
2022-12-22T00:54:02.640Z,93.52
2022-12-22T00:57:06.567Z,93.95
2022-12-22T01:00:12.268Z,93.79
2022-12-22T01:03:16.582Z,93.88
2022-12-22T01:06:22.106Z,93.48
2022-12-22T01:09:29.153Z,93.66
2022-12-22T01:12:39.617Z,93.74
2022-12-22T01:15:45.659Z,93.66
2022-12-22T01:18:50.445Z,93.61
2022-12-22T01:21:54.915Z,93.24
2022-12-22T01:24:59.359Z,93.47
2022-12-22T01:28:03.819Z,93.41
2022-12-22T01:31:09.472Z,93.29
2022-12-22T01:34:13.762Z,93.54
2022-12-22T01:37:18.055Z,93.32
2022-12-22T01:40:23.269Z,93.52
2022-12-22T01:43:46.662Z,93.76
2022-12-22T01:46:54.142Z,93.19
2022-12-22T01:50:01.085Z,93.36
2022-12-22T01:53:05.445Z,93.22
2022-12-22T01:56:10.011Z,93.44
2022-12-22T01:59:18.124Z,93.58
2022-12-22T02:02:27.326Z,93.47
2022-12-22T02:05:35.260Z,93.20
2022-12-22T02:08:46.994Z,93.37
2022-12-22T02:12:10.479Z,93.16
2022-12-22T02:15:26.454Z,93.09
2022-12-22T02:18:42.977Z,93.65
2022-12-22T02:21:59.253Z,93.16
2022-12-22T02:25:13.745Z,93.19
2022-12-22T02:28:20.209Z,93.31
2022-12-22T02:31:25.589Z,93.63
2022-12-22T02:34:33.786Z,93.50
2022-12-22T02:37:58.464Z,93.63
2022-12-22T02:41:25.914Z,93.20
2022-12-22T02:44:39.153Z,93.82
2022-12-22T02:47:46.798Z,93.79
2022-12-22T02:51:01.107Z,93.89
2022-12-22T02:54:05.925Z,93.63
2022-12-22T02:57:10.341Z,93.65
2022-12-22T03:00:14.754Z,94.04
2022-12-22T03:03:19.215Z,94.17
2022-12-22T03:06:23.384Z,93.66
2022-12-22T03:09:28.037Z,94.05
2022-12-22T03:12:32.506Z,94.08
2022-12-22T03:15:36.985Z,93.93
2022-12-22T03:18:41.664Z,93.64
2022-12-22T03:21:46.314Z,93.96
2022-12-22T03:24:50.464Z,94.08
2022-12-22T03:27:35.979Z,93.97
2022-12-22T03:30:21.515Z,93.61
2022-12-22T03:33:07.658Z,93.88
2022-12-22T03:35:53.560Z,93.36
2022-12-22T03:38:38.987Z,93.61
2022-12-22T03:41:43.559Z,93.92
2022-12-22T03:44:48.011Z,93.48
2022-12-22T03:47:33.658Z,94.03
2022-12-22T03:50:19.302Z,93.53
2022-12-22T03:53:05.448Z,93.58
2022-12-22T03:55:51.175Z,93.88
2022-12-22T03:58:37.110Z,93.61
2022-12-22T04:01:22.934Z,93.78
2022-12-22T04:04:09.804Z,93.74
2022-12-22T04:06:56.302Z,93.82
2022-12-22T04:10:02.277Z,93.96
2022-12-22T04:12:56.983Z,93.93
2022-12-22T04:15:42.816Z,94.08
2022-12-22T04:18:28.775Z,93.45
2022-12-22T04:21:14.884Z,94.09
2022-12-22T04:24:01.011Z,93.36
2022-12-22T04:26:46.730Z,93.62
2022-12-22T04:29:32.300Z,94.10
2022-12-22T04:32:17.806Z,93.69
2022-12-22T04:35:03.918Z,93.59
2022-12-22T04:37:49.800Z,93.66
2022-12-22T04:40:36.469Z,93.96
2022-12-22T04:43:22.264Z,93.85
2022-12-22T04:46:08.780Z,93.38
2022-12-22T04:48:59.601Z,93.68
2022-12-22T04:51:45.922Z,93.67
2022-12-22T04:54:31.680Z,93.78
2022-12-22T04:57:17.321Z,94.17
2022-12-22T05:00:04.500Z,93.93
2022-12-22T05:02:50.527Z,93.85
2022-12-22T05:05:36.857Z,93.66
2022-12-22T05:08:22.712Z,94.21
2022-12-22T05:11:08.512Z,94.14
2022-12-22T05:13:54.377Z,94.39
2022-12-22T05:16:39.717Z,94.18
2022-12-22T05:19:30.602Z,94.45
2022-12-22T05:22:17.293Z,95.17
2022-12-22T05:25:03.411Z,95.04
2022-12-22T05:27:50.633Z,95.52
2022-12-22T05:30:36.127Z,95.55
2022-12-22T05:33:21.715Z,95.58
2022-12-22T05:36:07.898Z,95.44
2022-12-22T05:38:53.582Z,95.52
2022-12-22T05:41:38.803Z,95.68
2022-12-22T05:44:24.079Z,95.48
2022-12-22T05:47:09.693Z,95.30
2022-12-22T05:49:55.012Z,95.34
2022-12-22T05:52:42.249Z,95.53
2022-12-22T05:55:28.109Z,95.53
2022-12-22T05:58:13.606Z,95.46
2022-12-22T06:01:00.048Z,95.38
2022-12-22T06:03:45.447Z,94.74
2022-12-22T06:06:30.819Z,94.90
2022-12-22T06:09:16.319Z,95.22
2022-12-22T06:12:02.399Z,95.00
2022-12-22T06:14:48.089Z,95.29
2022-12-22T06:17:36.769Z,94.90
2022-12-22T06:20:27.548Z,94.68
2022-12-22T06:23:12.873Z,95.00
2022-12-22T06:26:00.489Z,94.84
2022-12-22T06:28:46.137Z,94.38
2022-12-22T06:31:31.798Z,94.60
2022-12-22T06:34:18.170Z,94.68
2022-12-22T06:37:04.061Z,94.65
2022-12-22T06:39:49.532Z,94.62
2022-12-22T06:42:53.611Z,94.56
2022-12-22T06:45:43.910Z,94.50
2022-12-22T06:48:29.543Z,94.43
2022-12-22T06:51:14.883Z,94.62
2022-12-22T06:54:00.305Z,94.68
2022-12-22T06:56:45.809Z,94.61
2022-12-22T06:59:31.618Z,94.91
2022-12-22T07:02:17.091Z,94.84
2022-12-22T07:05:02.747Z,94.92
2022-12-22T07:07:48.717Z,94.47
2022-12-22T07:10:52.946Z,94.56
2022-12-22T07:13:38.740Z,94.67
2022-12-22T07:16:24.793Z,95.01
2022-12-22T07:19:10.631Z,94.81
2022-12-22T07:21:57.672Z,94.40
2022-12-22T07:24:43.389Z,94.66
2022-12-22T07:27:29.361Z,94.54
2022-12-22T07:30:15.563Z,94.68
2022-12-22T07:33:01.106Z,94.40
2022-12-22T07:35:47.039Z,94.62
2022-12-22T07:38:37.314Z,94.28
2022-12-22T07:41:41.654Z,95.06
2022-12-22T07:44:27.115Z,94.70
2022-12-22T07:47:13.058Z,94.27
2022-12-22T07:50:17.140Z,94.80
2022-12-22T07:53:05.112Z,94.36
2022-12-22T07:55:50.520Z,94.87
2022-12-22T07:58:36.126Z,94.94
2022-12-22T08:01:21.961Z,94.15
2022-12-22T08:04:09.246Z,94.58
2022-12-22T08:06:55.032Z,94.20
2022-12-22T08:09:40.600Z,94.36
2022-12-22T08:12:26.000Z,94.77
2022-12-22T08:15:12.460Z,94.16
2022-12-22T08:17:58.239Z,94.43
2022-12-22T08:20:50.080Z,94.11
2022-12-22T08:23:36.437Z,94.05
2022-12-22T08:26:33.767Z,94.38
2022-12-22T08:29:24.772Z,94.66
2022-12-22T08:32:11.937Z,94.76
2022-12-22T08:34:57.292Z,94.56
2022-12-22T08:37:45.364Z,94.67
2022-12-22T08:40:32.801Z,94.66
2022-12-22T08:43:20.003Z,94.13
2022-12-22T08:46:05.755Z,94.08
2022-12-22T08:48:51.348Z,94.38
2022-12-22T08:51:36.583Z,94.16
2022-12-22T08:54:22.549Z,94.83
2022-12-22T08:57:08.381Z,94.51
2022-12-22T08:59:54.212Z,94.63
2022-12-22T09:02:39.654Z,94.25
2022-12-22T09:05:25.306Z,94.51
2022-12-22T09:08:10.768Z,94.23
2022-12-22T09:10:56.402Z,94.47
2022-12-22T09:13:42.194Z,94.46
2022-12-22T09:16:31.095Z,95.06
2022-12-22T09:19:16.913Z,94.35
2022-12-22T09:22:02.808Z,94.75
2022-12-22T09:24:48.540Z,94.71
2022-12-22T09:27:33.918Z,94.29
2022-12-22T09:30:19.696Z,94.69
2022-12-22T09:33:04.969Z,94.28
2022-12-22T09:35:50.344Z,94.33
2022-12-22T09:38:37.211Z,94.58
2022-12-22T09:41:34.883Z,94.55
2022-12-22T09:44:40.634Z,94.96
2022-12-22T09:47:37.838Z,94.75
2022-12-22T09:50:26.459Z,94.68
2022-12-22T09:53:31.977Z,94.05
2022-12-22T09:56:18.127Z,94.38
2022-12-22T09:59:12.889Z,94.16
2022-12-22T10:01:58.357Z,94.50
2022-12-22T10:05:05.543Z,94.45
2022-12-22T10:07:51.342Z,93.99
2022-12-22T10:10:36.710Z,94.15
2022-12-22T10:13:22.572Z,93.82
2022-12-22T10:16:27.639Z,93.66
2022-12-22T10:19:14.108Z,94.15
2022-12-22T10:22:18.042Z,93.71
2022-12-22T10:25:05.953Z,94.09
2022-12-22T10:27:51.773Z,93.85
2022-12-22T10:30:39.049Z,94.36
2022-12-22T10:33:24.414Z,93.92
2022-12-22T10:36:10.162Z,93.63
2022-12-22T10:39:08.855Z,93.86
2022-12-22T10:42:00.124Z,94.00
2022-12-22T10:44:49.105Z,93.59
2022-12-22T10:47:35.942Z,93.59
2022-12-22T10:50:22.865Z,94.00
2022-12-22T10:53:08.320Z,94.20
2022-12-22T10:56:06.334Z,93.97
2022-12-22T10:59:02.315Z,93.84
2022-12-22T11:01:49.211Z,93.70
2022-12-22T11:04:34.714Z,93.64
2022-12-22T11:07:20.871Z,93.39
2022-12-22T11:10:32.589Z,93.83
2022-12-22T11:13:28.656Z,93.09
2022-12-22T11:16:35.000Z,93.16
2022-12-22T11:19:41.551Z,93.62
2022-12-22T11:23:02.679Z,92.80
2022-12-22T11:26:20.069Z,92.79
2022-12-22T11:29:39.757Z,93.30
2022-12-22T11:32:30.896Z,92.65
2022-12-22T11:35:35.776Z,92.99
2022-12-22T11:38:36.504Z,93.29
2022-12-22T11:41:37.263Z,92.44
2022-12-22T11:44:45.733Z,92.87
2022-12-22T11:47:39.293Z,92.45
2022-12-22T11:51:08.738Z,92.85
2022-12-22T11:54:32.837Z,92.41
2022-12-22T11:57:18.231Z,92.32
2022-12-22T12:00:14.403Z,93.00
2022-12-22T12:03:31.101Z,93.07
2022-12-22T12:06:25.937Z,92.51
2022-12-22T12:09:34.275Z,92.57
2022-12-22T12:12:22.508Z,92.80
2022-12-22T12:15:17.355Z,92.52
2022-12-22T12:18:14.785Z,92.53
2022-12-22T12:21:18.319Z,93.24
2022-12-22T12:24:06.917Z,92.59
2022-12-22T12:26:52.469Z,92.73
2022-12-22T12:29:46.624Z,92.71
2022-12-22T12:32:53.340Z,92.78
2022-12-22T12:35:54.207Z,93.15
2022-12-22T12:41:56.644Z,92.95
2022-12-22T12:44:42.679Z,92.92
2022-12-22T12:47:34.202Z,92.33
2022-12-22T12:50:35.356Z,92.76
2022-12-22T12:53:25.815Z,92.82
2022-12-22T12:56:11.527Z,92.70
2022-12-22T12:58:58.363Z,92.15
2022-12-22T13:01:43.962Z,92.07
2022-12-22T13:05:00.751Z,92.11
2022-12-22T13:08:23.654Z,92.09
2022-12-22T13:11:31.081Z,92.11
2022-12-22T13:15:00.422Z,91.80
2022-12-22T13:17:49.850Z,91.62
2022-12-22T13:20:39.021Z,91.98
2022-12-22T13:23:28.704Z,91.97
2022-12-22T13:26:24.064Z,92.11
2022-12-22T13:29:22.021Z,91.81
2022-12-22T13:32:25.528Z,92.03
2022-12-22T13:35:36.496Z,91.75
2022-12-22T13:38:34.953Z,92.30
2022-12-22T13:41:27.229Z,92.11
2022-12-22T13:44:20.363Z,92.31
2022-12-22T13:47:15.223Z,92.18
2022-12-22T13:50:09.666Z,92.25
2022-12-22T13:52:57.944Z,91.85
2022-12-22T13:55:48.024Z,92.38
2022-12-22T13:58:40.158Z,92.98
2022-12-22T14:01:26.261Z,92.58
2022-12-22T14:04:14.027Z,93.01
2022-12-22T14:07:11.043Z,92.37
2022-12-22T14:09:57.327Z,92.62
2022-12-22T14:12:46.599Z,92.29
2022-12-22T14:15:32.690Z,92.42
2022-12-22T14:18:25.845Z,93.10
2022-12-22T14:21:12.144Z,92.30
2022-12-22T14:23:57.868Z,92.95
2022-12-22T14:26:43.496Z,92.28
2022-12-22T14:29:31.146Z,92.83
2022-12-22T14:32:43.280Z,92.61
2022-12-22T14:35:31.667Z,92.94
2022-12-22T14:38:25.972Z,93.49
2022-12-22T14:41:38.288Z,93.42
2022-12-22T14:44:28.172Z,93.47
2022-12-22T14:47:20.420Z,93.13
2022-12-22T14:50:21.033Z,93.27
2022-12-22T14:53:06.767Z,93.06
2022-12-22T14:55:53.539Z,93.09
2022-12-22T14:58:41.902Z,93.83
2022-12-22T15:01:30.806Z,94.03
2022-12-22T15:04:20.130Z,94.06
2022-12-22T15:08:03.390Z,93.64
2022-12-22T15:10:25.816Z,93.32
2022-12-22T15:13:18.951Z,94.12
2022-12-22T15:16:05.320Z,93.99
2022-12-22T15:18:52.526Z,93.43
2022-12-22T15:21:37.895Z,93.95
2022-12-22T15:24:23.525Z,93.92
2022-12-22T15:27:09.599Z,94.02
2022-12-22T15:29:55.644Z,93.66
2022-12-22T15:32:42.070Z,94.00
2022-12-22T15:35:36.634Z,93.77
2022-12-22T15:38:24.267Z,94.00
2022-12-22T15:41:10.025Z,93.79
2022-12-22T15:43:58.391Z,93.79
2022-12-22T15:46:49.016Z,94.16
2022-12-22T15:49:34.782Z,93.61
2022-12-22T15:52:20.207Z,94.16
2022-12-22T15:55:06.193Z,93.98
2022-12-22T15:57:54.948Z,94.23
2022-12-22T16:00:40.660Z,93.50
2022-12-22T16:03:25.890Z,93.96
2022-12-22T16:06:16.673Z,94.16
2022-12-22T16:09:10.177Z,93.97
2022-12-22T16:11:57.035Z,93.92
2022-12-22T16:14:50.242Z,94.20
2022-12-22T16:17:36.373Z,94.41
2022-12-22T16:20:22.243Z,94.39
2022-12-22T16:23:15.078Z,94.05
2022-12-22T16:26:02.660Z,93.95
2022-12-22T16:28:48.541Z,94.52
2022-12-22T16:31:34.141Z,94.28
2022-12-22T16:34:20.024Z,94.15
2022-12-22T16:37:05.713Z,94.28
2022-12-22T16:39:51.157Z,93.73
2022-12-22T16:45:44.171Z,94.08
2022-12-22T16:48:35.403Z,93.90
2022-12-22T16:51:34.155Z,94.52
2022-12-22T16:54:20.690Z,93.97
2022-12-22T16:57:06.451Z,93.72
2022-12-22T16:59:51.627Z,94.07
2022-12-22T17:02:37.424Z,94.35
2022-12-22T17:05:42.031Z,94.04
2022-12-22T17:08:34.653Z,94.49
2022-12-22T17:11:23.104Z,94.08
2022-12-22T17:14:22.555Z,94.58
2022-12-22T17:17:16.388Z,94.36
2022-12-22T17:20:02.282Z,94.12
2022-12-22T17:22:55.469Z,94.51
2022-12-22T17:25:41.131Z,94.77
2022-12-22T17:28:27.124Z,94.42
2022-12-22T17:31:18.037Z,93.91
2022-12-22T17:34:13.138Z,94.13
2022-12-22T17:37:00.104Z,94.25
2022-12-22T17:39:49.254Z,93.91
2022-12-22T17:42:34.908Z,94.51
2022-12-22T17:45:21.015Z,94.68
2022-12-22T17:48:06.857Z,94.39
2022-12-22T17:50:52.490Z,94.46
2022-12-22T17:53:41.090Z,94.00
2022-12-22T17:56:27.755Z,94.33
2022-12-22T17:59:13.564Z,94.91
2022-12-22T18:01:59.387Z,94.32
2022-12-22T18:04:46.123Z,94.51
2022-12-22T18:07:31.577Z,93.91
2022-12-22T18:10:32.745Z,94.18
2022-12-22T18:13:25.931Z,94.55
2022-12-22T18:16:17.435Z,94.93
2022-12-22T18:19:04.422Z,94.45
2022-12-22T18:21:49.984Z,94.29
2022-12-22T18:24:35.375Z,94.26
2022-12-22T18:27:21.552Z,94.30
2022-12-22T18:30:26.030Z,94.35
2022-12-22T18:33:11.517Z,94.13
2022-12-22T18:35:59.519Z,94.34
2022-12-22T18:38:46.659Z,94.74
2022-12-22T18:41:37.163Z,94.61
2022-12-22T18:44:23.150Z,94.79
2022-12-22T18:47:08.971Z,94.26
2022-12-22T18:49:54.883Z,94.26
2022-12-22T18:52:40.647Z,94.41
2022-12-22T18:55:29.245Z,94.92
2022-12-22T18:58:15.731Z,94.70
2022-12-22T19:01:01.701Z,94.37
2022-12-22T19:03:48.202Z,95.01
2022-12-22T19:06:34.040Z,94.06
2022-12-22T19:09:20.412Z,94.06
2022-12-22T19:12:06.035Z,95.08
2022-12-22T19:14:56.627Z,94.66
2022-12-22T19:17:42.483Z,94.62
2022-12-22T19:20:28.974Z,94.26
2022-12-22T19:23:16.545Z,93.98
2022-12-22T19:26:08.318Z,94.36
2022-12-22T19:29:00.657Z,94.38
2022-12-22T19:31:46.036Z,94.51
2022-12-22T19:34:31.920Z,94.29
2022-12-22T19:37:18.544Z,94.56
2022-12-22T19:40:04.569Z,94.56
2022-12-22T19:42:53.711Z,94.51
2022-12-22T19:45:39.198Z,94.08
2022-12-22T19:48:26.835Z,94.84
2022-12-22T19:51:17.505Z,94.24
2022-12-22T19:54:03.553Z,94.64
2022-12-22T19:56:52.642Z,94.66
2022-12-22T19:59:41.302Z,94.21
2022-12-22T20:02:30.473Z,94.50
2022-12-22T20:05:24.979Z,94.10
2022-12-22T20:08:10.743Z,94.74
2022-12-22T20:10:58.999Z,94.14
2022-12-22T20:13:46.329Z,94.26
2022-12-22T20:16:32.017Z,94.63
2022-12-22T20:19:17.633Z,94.66
2022-12-22T20:22:03.242Z,94.32
2022-12-22T20:24:50.320Z,94.04
2022-12-22T20:27:36.087Z,94.07
2022-12-22T20:30:24.598Z,94.56
2022-12-22T20:33:12.292Z,94.10
2022-12-22T20:36:00.346Z,94.20
2022-12-22T20:38:45.930Z,94.13
2022-12-22T20:41:31.598Z,94.37
2022-12-22T20:44:17.597Z,94.51
2022-12-22T20:47:03.499Z,94.19
2022-12-22T20:49:49.683Z,94.11
2022-12-22T20:52:35.769Z,94.18
2022-12-22T20:55:25.070Z,94.62
2022-12-22T20:58:22.635Z,94.52
2022-12-22T21:01:08.572Z,94.87
2022-12-22T21:03:54.138Z,94.13
2022-12-22T21:06:52.979Z,94.88
2022-12-22T21:09:39.693Z,94.54
2022-12-22T21:12:25.059Z,94.03
2022-12-22T21:15:26.146Z,94.59
2022-12-22T21:18:21.120Z,94.07
2022-12-22T21:21:06.976Z,94.38
2022-12-22T21:23:52.507Z,94.49
2022-12-22T21:26:43.024Z,94.40
2022-12-22T21:29:28.716Z,94.34
2022-12-22T21:32:14.922Z,94.19
2022-12-22T21:35:06.047Z,94.35
2022-12-22T21:37:55.434Z,94.48
2022-12-22T21:40:41.762Z,94.52
2022-12-22T21:43:27.209Z,94.29
2022-12-22T21:46:13.461Z,94.66
2022-12-22T21:48:59.212Z,94.70
2022-12-22T21:51:45.287Z,94.77
2022-12-22T21:54:30.904Z,94.22
2022-12-22T21:57:16.712Z,94.73
2022-12-22T22:00:04.089Z,94.48
2022-12-22T22:02:51.284Z,94.54
2022-12-22T22:05:38.953Z,95.00
2022-12-22T22:08:25.233Z,94.53
2022-12-22T22:11:23.359Z,94.38
2022-12-22T22:14:08.863Z,94.62
2022-12-22T22:16:54.761Z,94.63
2022-12-22T22:19:40.246Z,94.81
2022-12-22T22:22:26.117Z,94.60
2022-12-22T22:25:13.418Z,94.87
2022-12-22T22:28:01.853Z,94.96
2022-12-22T22:30:47.863Z,94.56
2022-12-22T22:33:33.655Z,94.79
2022-12-22T22:36:19.067Z,94.91
2022-12-22T22:39:04.544Z,94.37
2022-12-22T22:41:50.072Z,94.54
2022-12-22T22:44:35.879Z,94.42
2022-12-22T22:47:21.468Z,94.85
2022-12-22T22:50:08.925Z,94.97
2022-12-22T22:52:54.724Z,94.07
2022-12-22T22:55:42.848Z,94.45
2022-12-22T22:58:28.950Z,94.47
2022-12-22T23:01:14.706Z,94.56
2022-12-22T23:04:00.752Z,94.47
2022-12-22T23:06:46.156Z,94.68
2022-12-22T23:09:31.761Z,94.30
2022-12-22T23:12:17.134Z,94.07
2022-12-22T23:15:03.000Z,94.47
2022-12-22T23:17:51.250Z,94.30
2022-12-22T23:20:37.179Z,94.56
2022-12-22T23:23:22.783Z,94.30
2022-12-22T23:26:09.239Z,94.02
2022-12-22T23:29:00.991Z,93.87
2022-12-22T23:31:48.391Z,94.67
2022-12-22T23:34:34.056Z,94.55
2022-12-22T23:37:19.915Z,94.04
2022-12-22T23:43:12.120Z,93.95
2022-12-22T23:45:58.080Z,94.35
2022-12-22T23:48:44.014Z,94.31
2022-12-22T23:51:30.090Z,94.58
2022-12-22T23:54:15.672Z,94.18
2022-12-22T23:57:01.396Z,94.32
2022-12-22T23:59:46.931Z,94.07
